Time;durP1;ratioP1;P1;durP2;ratioP2;P2;SDS_P1;SDS_P2;PMS_P1;PMS_P2;Temp;Humidity;BMP_temperature;BMP_pressure;BME280_temperature;BME280_humidity;BME280_pressure;Samples;Min_cycle;Max_cycle;Signal;HPM_P1;HPM_P2
2022/01/21 00:01:57;;;;;;;49.00;32.40;;;128.50;2252.80;;;;;;4845416;29;20034;-79
2022/01/21 00:04:22;;;;;;;50.58;32.80;;;128.50;2252.80;;;;;;4845570;29;20025;-80
2022/01/21 00:06:48;;;;;;;54.58;34.30;;;128.50;2252.80;;;;;;4845832;29;20052;-80
2022/01/21 00:09:14;;;;;;;61.95;37.85;;;128.50;2252.80;;;;;;4845379;29;20029;-80
2022/01/21 00:11:40;;;;;;;58.47;34.90;;;128.40;2252.80;;;;;;4845349;29;20050;-81
2022/01/21 00:14:07;;;;;;;53.63;34.05;;;128.50;2252.80;;;;;;4845646;29;20434;-81
2022/01/21 00:16:34;;;;;;;43.13;30.15;;;128.40;2252.80;;;;;;4845356;29;20029;-80
2022/01/21 00:19:14;;;;;;;44.22;27.90;;;128.30;2252.80;;;;;;4861950;29;20077;-82
2022/01/21 00:30:16;;;;;;;29.88;20.60;;;128.10;2252.80;;;;;;4862806;29;20499;-79
2022/01/21 00:33:01;;;;;;;32.78;20.33;;;128.10;2252.80;;;;;;4846242;29;20033;-83
2022/01/21 00:35:27;;;;;;;24.35;16.00;;;128.10;2252.80;;;;;;4846302;29;20374;-82
2022/01/21 00:54:19;;;;;;;27.52;16.80;;;103.20;2227.20;;;;;;4824575;29;20461;-85
2022/01/21 00:56:45;;;;;;;27.08;18.60;;;103.20;2227.20;;;;;;4809828;29;20022;-85
2022/01/21 00:59:11;;;;;;;25.52;16.67;;;103.30;2227.20;;;;;;4809456;29;20042;-85
2022/01/21 01:01:37;;;;;;;18.55;12.20;;;103.30;2227.20;;;;;;4809404;29;20121;-84
2022/01/21 01:04:04;;;;;;;17.60;13.13;;;103.30;2227.20;;;;;;4809624;29;20033;-84
2022/01/21 01:06:30;;;;;;;17.80;12.57;;;103.20;2227.20;;;;;;4809721;29;20094;-83
2022/01/21 01:08:56;;;;;;;28.20;15.68;;;103.20;2227.20;;;;;;4809212;29;20030;-86
2022/01/21 01:22:10;;;;;;;50.67;29.67;;;103.20;2227.20;;;;;;4825762;29;20044;-85
2022/01/21 01:27:37;;;;;;;36.97;23.20;;;103.20;2227.20;;;;;;4825791;29;20091;-84
2022/01/21 01:30:04;;;;;;;38.95;24.52;;;103.20;2227.20;;;;;;4809475;29;20046;-83
2022/01/21 01:32:31;;;;;;;39.78;25.60;;;103.20;2227.20;;;;;;4809198;29;20467;-83
2022/01/21 01:34:57;;;;;;;41.80;25.80;;;103.20;2227.20;;;;;;4809478;29;20029;-82
2022/01/21 01:37:37;;;;;;;45.38;26.77;;;103.20;2227.20;;;;;;4809322;29;20065;-84
2022/01/21 01:40:19;;;;;;;40.50;23.17;;;103.20;2227.20;;;;;;4809619;29;20034;-84
2022/01/21 01:51:02;;;;;;;47.58;29.13;;;103.20;2227.20;;;;;;4825377;29;20050;-85
2022/01/21 01:53:43;;;;;;;30.73;17.38;;;103.10;2227.20;;;;;;4808717;29;20046;-86
2022/01/21 01:56:12;;;;;;;28.45;18.88;;;103.10;2227.20;;;;;;4808869;29;20030;-83
2022/01/21 01:58:41;;;;;;;30.52;19.17;;;103.00;2227.20;;;;;;4809378;29;20456;-83
2022/01/21 02:01:07;;;;;;;16.30;9.52;;;103.10;2227.20;;;;;;4812742;29;20030;-83
2022/01/21 02:03:34;;;;;;;15.63;10.18;;;103.20;2227.20;;;;;;4812472;29;20023;-81
2022/01/21 02:06:00;;;;;;;17.80;11.57;;;102.80;2227.20;;;;;;4836331;29;20050;-80
2022/01/21 02:08:28;;;;;;;38.63;21.08;;;103.10;2227.20;;;;;;4827753;29;20026;-80
2022/01/21 02:10:53;;;;;;;27.40;16.65;;;103.10;2227.20;;;;;;4829378;29;20069;-82
2022/01/21 02:13:28;;;;;;;19.45;11.40;;;103.10;2227.20;;;;;;4825455;29;20023;-80
2022/01/21 02:15:59;;;;;;;18.08;11.35;;;103.10;2227.20;;;;;;4822025;29;20030;-83
2022/01/21 02:24:08;;;;;;;15.10;9.60;;;103.00;2227.20;;;;;;4828622;29;20103;-82
2022/01/21 02:26:35;;;;;;;17.20;9.68;;;103.00;2227.20;;;;;;4812225;29;20061;-82
2022/01/21 02:29:03;;;;;;;17.02;10.13;;;103.00;2227.20;;;;;;4812454;29;20026;-83
2022/01/21 02:31:29;;;;;;;9.10;5.32;;;103.00;2227.20;;;;;;4812014;29;20511;-83
2022/01/21 02:33:55;;;;;;;18.73;9.48;;;103.00;2227.20;;;;;;4812220;29;20033;-83
2022/01/21 02:36:21;;;;;;;19.08;11.02;;;103.10;2227.20;;;;;;4812217;29;20030;-83
2022/01/21 02:38:47;;;;;;;23.80;13.05;;;103.10;2227.20;;;;;;4812018;29;20033;-83
2022/01/21 02:41:13;;;;;;;20.17;13.27;;;103.00;2227.20;;;;;;4811879;29;20474;-85
2022/01/21 02:43:39;;;;;;;23.60;14.63;;;102.90;2227.20;;;;;;4811936;29;20022;-84
2022/01/21 02:46:08;;;;;;;35.47;20.27;;;103.00;2227.20;;;;;;4811695;29;20030;-85
2022/01/21 02:48:37;;;;;;;11.48;7.32;;;102.90;2227.20;;;;;;4811838;29;20141;-85
2022/01/21 02:51:07;;;;;;;11.05;7.07;;;102.70;2227.20;;;;;;4811719;29;20062;-85
2022/01/21 02:56:14;;;;;;;8.10;4.93;;;102.80;2227.20;;;;;;4828059;29;20033;-88
2022/01/21 02:58:40;;;;;;;7.47;4.30;;;102.60;2227.20;;;;;;4811757;29;20483;-85
2022/01/21 03:01:09;;;;;;;8.13;4.95;;;102.50;2227.20;;;;;;4811400;29;20022;-85
2022/01/21 03:03:35;;;;;;;7.00;4.38;;;102.50;2227.20;;;;;;4811677;29;20033;-81
2022/01/21 03:06:02;;;;;;;7.68;4.30;;;102.40;2227.20;;;;;;4811102;29;20054;-84
2022/01/21 03:08:29;;;;;;;8.88;5.22;;;77.70;2227.20;;;;;;4811678;29;20102;-85
2022/01/21 03:10:55;;;;;;;10.02;5.32;;;77.60;2227.20;;;;;;4810480;29;20042;-85
2022/01/21 03:13:22;;;;;;;11.00;6.20;;;77.60;2227.20;;;;;;4811421;29;20483;-86
2022/01/21 03:15:49;;;;;;;12.55;7.22;;;77.50;2227.20;;;;;;4811471;29;20069;-86
2022/01/21 03:18:16;;;;;;;8.70;4.65;;;77.40;2227.20;;;;;;4811441;29;20023;-86
2022/01/21 03:20:43;;;;;;;7.50;4.07;;;77.30;2227.20;;;;;;4811226;29;20026;-86
2022/01/21 03:23:15;;;;;;;9.05;5.35;;;77.30;2227.20;;;;;;4811413;29;20030;-85
2022/01/21 03:25:42;;;;;;;8.93;5.63;;;77.20;2227.20;;;;;;4811502;29;20125;-85
2022/01/21 03:28:09;;;;;;;7.45;4.63;;;77.20;2227.20;;;;;;4811343;29;20091;-86
2022/01/21 03:30:35;;;;;;;11.20;3.90;;;77.20;2227.20;;;;;;4827579;29;20167;-85
2022/01/21 03:33:01;;;;;;;6.25;3.28;;;77.10;2227.20;;;;;;4811318;29;20463;-87
2022/01/21 03:35:27;;;;;;;4.80;3.10;;;77.10;2227.20;;;;;;4811038;29;20037;-87
2022/01/21 03:37:52;;;;;;;6.75;3.70;;;77.20;2227.20;;;;;;4811202;29;20034;-87
2022/01/21 03:40:18;;;;;;;6.65;3.65;;;77.00;2227.20;;;;;;4811207;29;20026;-87
2022/01/21 03:42:44;;;;;;;7.10;3.50;;;77.00;2227.20;;;;;;4810906;29;20033;-86
2022/01/21 03:45:12;;;;;;;7.07;3.42;;;77.10;2227.20;;;;;;4810904;29;20188;-87
2022/01/21 03:47:38;;;;;;;4.22;2.58;;;77.20;2227.20;;;;;;4810948;29;20026;-86
2022/01/21 03:50:30;;;;;;;7.88;3.42;;;77.10;2227.20;;;;;;4810474;29;20030;-87
2022/01/21 03:52:57;;;;;;;6.15;3.40;;;77.10;2227.20;;;;;;4810774;29;20058;-88
2022/01/21 03:55:35;;;;;;;10.50;5.40;;;77.20;2227.20;;;;;;4810724;29;20376;-87
2022/01/21 03:58:05;;;;;;;8.88;5.05;;;77.20;2227.20;;;;;;4810829;29;20114;-87
2022/01/21 04:00:58;;;;;;;8.40;3.47;;;77.10;2227.20;;;;;;4810576;29;20054;-88
2022/01/21 04:03:24;;;;;;;8.35;4.15;;;77.30;2227.20;;;;;;4803345;29;20026;-87
2022/01/21 04:05:53;;;;;;;5.78;3.63;;;77.20;2227.20;;;;;;4810801;29;20022;-87
2022/01/21 04:08:28;;;;;;;8.43;3.95;;;77.20;2227.20;;;;;;4810767;29;20057;-85
2022/01/21 04:11:04;;;;;;;7.30;3.40;;;77.30;2227.20;;;;;;4810175;29;20026;-85
2022/01/21 04:13:55;;;;;;;9.48;5.13;;;77.30;2227.20;;;;;;4810306;29;20029;-85
2022/01/21 04:16:20;;;;;;;11.05;6.38;;;77.30;2227.20;;;;;;4810635;29;20030;-86
2022/01/21 04:18:46;;;;;;;16.83;7.90;;;77.20;2227.20;;;;;;4810565;29;20359;-85
2022/01/21 04:21:12;;;;;;;12.63;8.25;;;77.10;2227.20;;;;;;4810171;29;20040;-85
2022/01/21 04:23:38;;;;;;;11.23;7.28;;;77.20;2227.20;;;;;;4826072;29;20379;-85
2022/01/21 04:26:04;;;;;;;13.30;7.22;;;77.00;2227.20;;;;;;4810575;29;20420;-85
2022/01/21 04:28:29;;;;;;;12.20;7.75;;;77.00;2227.20;;;;;;4810373;29;20030;-85
2022/01/21 04:30:56;;;;;;;16.55;8.88;;;77.00;2227.20;;;;;;4810129;29;20422;-87
2022/01/21 04:33:22;;;;;;;14.48;6.72;;;77.00;2227.20;;;;;;4810364;29;20042;-86
2022/01/21 04:35:48;;;;;;;12.50;6.95;;;76.90;2227.20;;;;;;4810242;29;20034;-85
2022/01/21 04:38:16;;;;;;;15.70;8.57;;;77.00;2227.20;;;;;;4826183;29;20471;-85
2022/01/21 04:40:52;;;;;;;12.38;7.30;;;76.90;2227.20;;;;;;4810217;29;20118;-85
2022/01/21 04:48:47;;;;;;;8.60;4.60;;;76.80;2227.20;;;;;;4826479;29;20060;-83
2022/01/21 04:51:37;;;;;;;9.65;7.05;;;76.80;2227.20;;;;;;4809487;29;20026;-85
2022/01/21 04:54:12;;;;;;;11.68;6.32;;;52.10;2227.20;;;;;;4809946;29;20058;-85
2022/01/21 04:56:46;;;;;;;8.18;5.10;;;52.10;2227.20;;;;;;4806154;29;20055;-86
2022/01/21 04:59:12;;;;;;;10.25;5.10;;;52.10;2227.20;;;;;;4809502;29;20027;-85
2022/01/21 05:01:38;;;;;;;15.32;7.03;;;52.00;2227.20;;;;;;4809626;29;20433;-85
2022/01/21 05:04:04;;;;;;;8.65;5.38;;;52.10;2227.20;;;;;;4809895;29;20030;-87
2022/01/21 05:06:34;;;;;;;12.55;6.93;;;52.10;2227.20;;;;;;4809602;29;20026;-86
2022/01/21 05:09:00;;;;;;;11.00;6.20;;;52.00;2227.20;;;;;;4809708;29;20082;-85
2022/01/21 05:11:26;;;;;;;10.63;6.10;;;52.10;2227.20;;;;;;4809659;29;20037;-85
2022/01/21 05:13:58;;;;;;;9.10;4.93;;;52.10;2227.20;;;;;;4809192;29;20023;-86
2022/01/21 05:16:36;;;;;;;14.55;7.97;;;52.10;2227.20;;;;;;4809340;29;20019;-86
2022/01/21 05:19:14;;;;;;;14.32;7.68;;;76.80;2227.20;;;;;;4809217;29;20098;-85
2022/01/21 05:21:41;;;;;;;14.40;8.15;;;52.10;2227.20;;;;;;4809740;29;20063;-86
2022/01/21 05:24:08;;;;;;;9.38;5.22;;;51.90;2227.20;;;;;;4809683;29;20536;-86
2022/01/21 05:26:38;;;;;;;14.65;8.02;;;76.90;2227.20;;;;;;4809485;29;20515;-85
2022/01/21 05:29:05;;;;;;;15.13;7.53;;;52.00;2227.20;;;;;;4809053;29;20060;-85
2022/01/21 05:31:32;;;;;;;13.30;8.07;;;52.00;2227.20;;;;;;4809077;29;20034;-86
2022/01/21 05:33:58;;;;;;;13.52;7.90;;;52.10;2227.20;;;;;;4808787;29;20367;-85
2022/01/21 05:36:26;;;;;;;15.07;8.18;;;52.00;2227.20;;;;;;4809346;29;20023;-86
2022/01/21 05:38:55;;;;;;;15.73;8.85;;;52.00;2227.20;;;;;;4809188;29;20034;-86
2022/01/21 05:41:25;;;;;;;12.57;6.85;;;52.00;2227.20;;;;;;4809041;29;20030;-84
2022/01/21 05:44:00;;;;;;;12.13;8.13;;;52.00;2227.20;;;;;;4809239;29;20383;-85
2022/01/21 05:46:41;;;;;;;10.02;6.65;;;52.00;2227.20;;;;;;4809346;29;20026;-86
2022/01/21 05:49:07;;;;;;;11.85;5.80;;;52.00;2227.20;;;;;;4808735;29;20034;-86
2022/01/21 05:51:33;;;;;;;8.73;5.80;;;52.00;2227.20;;;;;;4809160;29;20026;-87
2022/01/21 05:53:59;;;;;;;35.88;15.88;;;52.10;2227.20;;;;;;4808713;29;20050;-82
2022/01/21 05:56:26;;;;;;;27.63;14.02;;;51.90;2227.20;;;;;;4809092;29;20035;-86
2022/01/21 05:58:52;;;;;;;14.93;7.78;;;52.00;2227.20;;;;;;4809017;29;20121;-86
2022/01/21 06:01:24;;;;;;;39.28;17.48;;;77.10;2227.20;;;;;;4809003;29;20425;-86
2022/01/21 06:03:53;;;;;;;17.57;9.60;;;52.00;2227.20;;;;;;4809050;29;20030;-86
2022/01/21 06:06:25;;;;;;;17.85;10.05;;;51.90;2227.20;;;;;;4809024;29;20618;-85
2022/01/21 06:08:51;;;;;;;48.28;24.15;;;51.90;2227.20;;;;;;4808953;29;20037;-86
2022/01/21 06:11:16;;;;;;;51.13;27.45;;;51.70;2227.20;;;;;;4808567;29;20026;-85
2022/01/21 06:13:45;;;;;;;23.92;14.48;;;51.80;2227.20;;;;;;4808694;29;20022;-85
2022/01/21 06:16:11;;;;;;;19.63;8.57;;;51.80;2227.20;;;;;;4808941;29;20057;-86
2022/01/21 06:19:06;;;;;;;15.75;9.85;;;51.80;2227.20;;;;;;4809108;29;20408;-85
2022/01/21 06:25:09;;;;;;;11.70;5.72;;;51.90;2227.20;;;;;;4822212;29;20041;-84
2022/01/21 06:28:05;;;;;;;17.45;8.38;;;51.90;2227.20;;;;;;4808622;29;20117;-85
2022/01/21 06:30:57;;;;;;;31.80;13.35;;;52.10;2227.20;;;;;;4796362;29;20077;-86
2022/01/21 06:33:30;;;;;;;20.02;8.73;;;52.10;2227.20;;;;;;4824698;29;20107;-85
2022/01/21 06:35:59;;;;;;;24.27;10.02;;;52.00;2227.20;;;;;;4808504;29;20078;-85
2022/01/21 06:38:27;;;;;;;12.10;5.60;;;52.10;2227.20;;;;;;4808805;29;20451;-85
2022/01/21 06:40:57;;;;;;;15.27;6.93;;;52.10;2227.20;;;;;;4808486;29;20063;-84
2022/01/21 06:43:31;;;;;;;11.50;5.63;;;51.60;2227.20;;;;;;4808393;29;20039;-85
2022/01/21 06:45:57;;;;;;;9.32;4.72;;;76.80;2227.20;;;;;;4810674;29;20033;-85
2022/01/21 06:48:25;;;;;;;9.93;4.47;;;52.00;2227.20;;;;;;4811739;29;20023;-84
2022/01/21 06:50:51;;;;;;;10.18;5.50;;;52.10;2227.20;;;;;;4811734;29;20026;-85
2022/01/21 06:53:17;;;;;;;11.70;6.65;;;52.10;2227.20;;;;;;4811593;29;20518;-85
2022/01/21 06:56:24;;;;;;;17.70;8.98;;;76.80;2227.20;;;;;;4811883;29;20037;-86
2022/01/21 06:58:50;;;;;;;17.38;9.00;;;76.80;2227.20;;;;;;4811763;29;20117;-84
2022/01/21 07:01:21;;;;;;;16.45;8.73;;;52.10;2227.20;;;;;;4811509;29;20179;-85
2022/01/21 07:03:52;;;;;;;14.98;8.93;;;52.10;2227.20;;;;;;4811829;29;20059;-86
2022/01/21 07:06:21;;;;;;;32.67;17.75;;;76.80;2227.20;;;;;;4811345;29;20128;-85
2022/01/21 07:08:53;;;;;;;30.95;17.65;;;76.80;2227.20;;;;;;4811784;29;20167;-85
2022/01/21 07:11:26;;;;;;;26.00;15.82;;;76.80;2227.20;;;;;;4811382;29;20035;-85
2022/01/21 07:13:54;;;;;;;21.33;12.32;;;76.80;2227.20;;;;;;4811729;29;20022;-87
2022/01/21 07:26:42;;;;;;;38.13;22.95;;;76.80;2227.20;;;;;;4792409;29;20091;-85
2022/01/21 07:29:08;;;;;;;47.22;28.88;;;76.80;2227.20;;;;;;4811177;29;20019;-84
2022/01/21 07:32:29;;;;;;;85.70;50.13;;;76.90;2227.20;;;;;;4811324;29;20536;-85
2022/01/21 07:35:17;;;;;;;;;;;;;;;;;;;;;
2022/01/21 07:38:01;;;;;;;59.22;32.28;;;76.90;2227.20;;;;;;4827159;29;20037;-85
2022/01/21 07:40:32;;;;;;;60.17;35.60;;;76.90;2227.20;;;;;;4810469;29;20035;-84
2022/01/21 07:43:18;;;;;;;62.95;35.75;;;76.90;2227.20;;;;;;4811248;29;20026;-85
2022/01/21 07:45:44;;;;;;;97.13;44.72;;;76.90;2227.20;;;;;;4811112;29;20038;-85
2022/01/21 07:48:10;;;;;;;84.18;39.22;;;76.90;2227.20;;;;;;4810939;29;20030;-86
2022/01/21 07:50:37;;;;;;;73.95;39.08;;;77.00;2227.20;;;;;;4810956;29;20034;-86
2022/01/21 07:53:08;;;;;;;52.28;28.80;;;76.90;2227.20;;;;;;4825575;29;20081;-87
2022/01/21 07:55:44;;;;;;;75.20;42.20;;;76.90;2227.20;;;;;;4811160;29;20030;-86
2022/01/21 07:59:11;;;;;;;49.22;29.23;;;77.00;2227.20;;;;;;4809947;29;20092;-85
2022/01/21 08:19:19;;;;;;;25.17;16.13;;;76.90;2227.20;;;;;;4735932;30;20107;-86
2022/01/21 08:22:28;;;;;;;33.85;18.58;;;76.90;2227.20;;;;;;4735182;30;20064;-86
2022/01/21 08:25:04;;;;;;;24.40;14.20;;;76.90;2227.20;;;;;;4735074;30;20029;-87
2022/01/21 08:27:30;;;;;;;19.33;12.55;;;76.90;2227.20;;;;;;4756346;30;20052;-87
2022/01/21 08:29:59;;;;;;;30.45;17.00;;;77.00;2227.20;;;;;;4801663;29;20476;-87
2022/01/21 08:32:24;;;;;;;30.38;16.75;;;77.00;2227.20;;;;;;4810097;29;20030;-85
2022/01/21 08:37:58;;;;;;;70.15;41.22;;;77.10;2227.20;;;;;;4826514;29;20539;-86
2022/01/21 08:41:02;;;;;;;43.58;25.25;;;77.10;2227.20;;;;;;4805117;29;20030;-88
2022/01/21 08:43:28;;;;;;;43.17;24.40;;;77.20;2227.20;;;;;;4793475;29;20038;-87
2022/01/21 08:49:20;;;;;;;37.75;21.67;;;77.20;2227.20;;;;;;4826353;29;20030;-87
2022/01/21 08:51:50;;;;;;;49.72;28.30;;;77.20;2227.20;;;;;;4809939;29;20027;-86
2022/01/21 08:54:17;;;;;;;51.92;30.65;;;77.30;2227.20;;;;;;4809747;29;20117;-85
2022/01/21 08:56:47;;;;;;;36.03;22.00;;;77.30;2227.20;;;;;;4817126;29;20026;-85
2022/01/21 08:59:13;;;;;;;44.20;19.98;;;77.30;2227.20;;;;;;4824153;29;20035;-85
2022/01/21 09:01:38;;;;;;;48.22;22.17;;;77.40;2227.20;;;;;;4824274;29;20037;-78
2022/01/21 09:04:04;;;;;;;58.55;25.25;;;77.60;2227.20;;;;;;4824970;29;20413;-84
2022/01/21 09:06:30;;;;;;;67.60;30.50;;;77.60;2227.20;;;;;;4824060;29;20058;-83
2022/01/21 09:08:57;;;;;;;68.85;31.23;;;77.60;2227.20;;;;;;4823306;29;20113;-84
2022/01/21 09:11:23;;;;;;;62.20;28.60;;;77.70;2227.20;;;;;;4823123;29;20383;-84
2022/01/21 09:13:50;;;;;;;73.45;34.03;;;77.70;2227.20;;;;;;4823941;29;20036;-83
2022/01/21 09:16:17;;;;;;;60.90;27.95;;;77.70;2227.20;;;;;;4825524;29;20341;-86
2022/01/21 09:18:48;;;;;;;92.88;42.67;;;77.70;2227.20;;;;;;4823624;29;20026;-82
2022/01/21 09:21:15;;;;;;;94.10;42.50;;;77.70;2227.20;;;;;;4824170;29;20380;-83
2022/01/21 09:23:41;;;;;;;41.70;20.73;;;77.70;2227.20;;;;;;4823964;29;20030;-82
2022/01/21 09:26:09;;;;;;;45.33;22.33;;;77.70;2227.20;;;;;;4824561;29;20033;-87
2022/01/21 09:28:34;;;;;;;53.55;24.67;;;77.60;2227.20;;;;;;4824394;29;20027;-84
2022/01/21 09:31:01;;;;;;;58.65;26.42;;;77.70;2227.20;;;;;;4823581;29;20043;-84
2022/01/21 09:33:27;;;;;;;119.22;48.78;;;102.40;2227.20;;;;;;4823599;29;20482;-84
2022/01/21 09:35:53;;;;;;;52.03;26.73;;;77.70;2227.20;;;;;;4823952;29;20791;-85
2022/01/21 09:38:53;;;;;;;40.90;22.27;;;102.40;2227.20;;;;;;4823677;29;20026;-83
2022/01/21 09:41:19;;;;;;;35.30;19.20;;;102.50;2227.20;;;;;;4822468;29;20133;-84
2022/01/21 09:47:05;;;;;;;45.60;23.38;;;103.10;2227.20;;;;;;4817655;29;20531;-84
2022/01/21 09:49:34;;;;;;;40.58;21.60;;;102.60;2227.20;;;;;;4804634;29;20041;-84
2022/01/21 09:55:10;;;;;;;23.27;14.40;;;102.70;2227.20;;;;;;4833023;29;20071;-84
2022/01/21 09:57:48;;;;;;;53.88;25.45;;;102.70;2227.20;;;;;;4827307;29;20054;-83
2022/01/21 10:03:04;;;;;;;24.77;13.07;;;102.80;2227.20;;;;;;4843477;29;20089;-84
2022/01/21 10:05:31;;;;;;;24.77;14.38;;;102.90;2227.20;;;;;;4827372;29;20026;-83
2022/01/21 10:08:00;;;;;;;38.40;21.25;;;103.00;2227.20;;;;;;4842879;29;20029;-82
2022/01/21 10:10:25;;;;;;;24.55;12.30;;;102.80;2227.20;;;;;;4827121;29;20086;-84
2022/01/21 10:13:01;;;;;;;13.35;8.15;;;102.80;2227.20;;;;;;4826894;29;20034;-81
2022/01/21 10:15:26;;;;;;;19.15;9.07;;;102.90;2227.20;;;;;;4826963;29;20026;-81
2022/01/21 10:18:01;;;;;;;16.58;8.45;;;103.00;2227.20;;;;;;4826858;29;20496;-81
2022/01/21 10:20:28;;;;;;;17.52;9.05;;;103.10;2227.20;;;;;;4828447;29;20022;-81
2022/01/21 10:22:59;;;;;;;16.08;6.13;;;103.10;2227.20;;;;;;4846499;29;20022;-82
2022/01/21 10:25:26;;;;;;;45.92;30.13;;;103.10;2227.20;;;;;;4830430;29;20030;-82
2022/01/21 10:27:52;;;;;;;23.05;15.88;;;103.10;2227.20;;;;;;4830030;29;20061;-81
2022/01/21 10:30:28;;;;;;;14.43;9.25;;;103.20;2227.20;;;;;;4846412;29;20033;-80
2022/01/21 10:32:55;;;;;;;14.20;6.00;;;103.30;2227.20;;;;;;4830032;29;20037;-81
2022/01/21 10:35:36;;;;;;;15.07;6.95;;;103.20;2227.20;;;;;;4829675;29;20120;-81
2022/01/21 10:38:19;;;;;;;14.13;8.23;;;103.20;2227.20;;;;;;4829445;29;20030;-80
2022/01/21 10:40:45;;;;;;;18.00;11.65;;;103.20;2227.20;;;;;;4829750;29;20040;-81
2022/01/21 10:43:16;;;;;;;6.88;3.13;;;103.20;2227.20;;;;;;4848733;29;20037;-83
2022/01/21 10:45:54;;;;;;;21.13;8.27;;;103.00;2227.20;;;;;;4835674;29;20022;-80
2022/01/21 10:48:52;;;;;;;11.40;7.07;;;103.00;2227.20;;;;;;4832167;29;20416;-80
2022/01/21 10:51:25;;;;;;;14.45;7.82;;;102.90;2227.20;;;;;;4833803;29;20034;-80
2022/01/21 10:53:52;;;;;;;19.90;13.23;;;102.80;2227.20;;;;;;4829004;29;20113;-81
2022/01/21 10:56:19;;;;;;;15.23;7.93;;;102.80;2227.20;;;;;;4829370;29;20170;-79
2022/01/21 10:58:52;;;;;;;29.08;17.25;;;102.60;2227.20;;;;;;4845871;29;20018;-81
2022/01/21 11:01:22;;;;;;;22.60;12.60;;;102.70;2227.20;;;;;;4845862;29;20044;-81
2022/01/21 11:04:20;;;;;;;28.08;17.23;;;102.80;2227.20;;;;;;4829051;29;20037;-80
2022/01/21 11:06:55;;;;;;;24.80;14.88;;;102.90;2227.20;;;;;;4814972;29;20042;-80
2022/01/21 11:09:26;;;;;;;22.30;12.77;;;102.90;2227.20;;;;;;4829121;29;20482;-82
2022/01/21 11:12:13;;;;;;;31.17;19.20;;;103.00;2227.20;;;;;;4844084;29;20037;-83
2022/01/21 11:15:06;;;;;;;25.73;15.05;;;103.10;2227.20;;;;;;4821466;29;20042;-79
2022/01/21 11:17:32;;;;;;;30.58;19.08;;;103.20;2227.20;;;;;;4806921;29;20030;-79
2022/01/21 11:20:16;;;;;;;37.58;22.25;;;103.20;2227.20;;;;;;4809665;29;20034;-82
2022/01/21 11:22:56;;;;;;;34.25;22.73;;;103.30;2227.20;;;;;;4823215;29;20054;-82
2022/01/21 11:25:43;;;;;;;28.50;18.80;;;128.00;2252.80;;;;;;4813741;29;20528;-81
2022/01/21 11:28:19;;;;;;;18.70;11.10;;;103.20;2227.20;;;;;;4809787;29;20034;-81
2022/01/21 11:30:46;;;;;;;28.10;16.42;;;103.30;2227.20;;;;;;4810148;29;20034;-82
2022/01/21 11:33:12;;;;;;;27.17;17.10;;;128.10;2252.80;;;;;;4807498;29;20038;-82
2022/01/21 11:35:41;;;;;;;27.58;18.20;;;128.20;2252.80;;;;;;4816262;29;20033;-81
2022/01/21 11:38:12;;;;;;;17.60;11.68;;;128.30;2252.80;;;;;;4814495;29;20479;-82
2022/01/21 11:40:39;;;;;;;11.90;7.68;;;128.20;2252.80;;;;;;4809458;29;20023;-83
2022/01/21 11:43:07;;;;;;;8.20;5.15;;;128.00;2252.80;;;;;;4809743;29;20029;-82
2022/01/21 11:46:04;;;;;;;15.98;7.93;;;128.00;2252.80;;;;;;4809349;29;20109;-80
2022/01/21 11:51:33;;;;;;;14.82;7.57;;;103.30;2227.20;;;;;;4825901;29;20091;-81
2022/01/21 11:54:07;;;;;;;17.70;9.70;;;103.20;2227.20;;;;;;4826215;29;20083;-81
2022/01/21 11:56:48;;;;;;;20.30;10.73;;;103.20;2227.20;;;;;;4809929;29;20035;-82
2022/01/21 11:59:33;;;;;;;19.63;9.70;;;103.20;2227.20;;;;;;4808922;29;20030;-83
2022/01/21 12:02:15;;;;;;;18.98;10.90;;;103.20;2227.20;;;;;;4809938;29;20071;-81
2022/01/21 12:04:47;;;;;;;17.38;9.88;;;103.30;2227.20;;;;;;4809391;29;20030;-81
2022/01/21 12:07:42;;;;;;;33.90;17.53;;;103.20;2227.20;;;;;;4808993;29;20038;-80
2022/01/21 12:10:10;;;;;;;18.50;11.88;;;103.00;2227.20;;;;;;4791402;29;20278;-77
2022/01/21 12:12:51;;;;;;;19.90;12.70;;;103.20;2227.20;;;;;;4791031;29;20037;-79
2022/01/21 12:15:31;;;;;;;19.00;14.75;;;128.20;2252.80;;;;;;4807210;29;20023;-78
2022/01/21 12:19:06;;;;;;;16.63;9.90;;;128.40;2227.20;;;;;;4791246;29;20038;-78
2022/01/21 12:21:18;;;;;;;12.10;7.57;;;128.10;2252.80;;;;;;4814431;29;20171;-80
2022/01/21 12:23:45;;;;;;;19.50;10.93;;;128.10;2201.60;;;;;;4809058;29;20031;-81
2022/01/21 12:26:24;;;;;;;10.80;6.43;;;128.30;2252.80;;;;;;4823948;29;20038;-78
2022/01/21 12:28:59;;;;;;;14.90;8.60;;;128.00;2227.20;;;;;;4808589;29;20031;-79
2022/01/21 12:32:00;;;;;;;28.60;15.82;;;128.00;2227.20;;;;;;4825028;29;20090;-82
2022/01/21 12:34:27;;;;;;;20.00;11.82;;;128.00;2176.00;;;;;;4825188;29;20038;-77
2022/01/21 12:37:07;;;;;;;46.20;27.10;;;128.00;2176.00;;;;;;4824631;29;20034;-79
2022/01/21 12:39:41;;;;;;;25.17;15.57;;;128.30;2201.60;;;;;;4808787;29;20022;-77
2022/01/21 12:42:28;;;;;;;18.67;11.50;;;128.60;2150.40;;;;;;4808188;29;20034;-81
2022/01/21 12:44:57;;;;;;;11.75;7.25;;;128.50;2048.00;;;;;;4807754;29;20034;-79
2022/01/21 12:47:38;;;;;;;33.00;15.27;;;128.70;2022.40;;;;;;4808143;29;20034;-79
2022/01/21 12:50:35;;;;;;;20.67;10.18;;;153.70;2048.00;;;;;;4807765;29;20109;-79
2022/01/21 12:58:20;;;;;;;27.15;13.82;;;153.70;2048.00;;;;;;4824359;29;20436;-77
2022/01/21 13:00:46;;;;;;;19.17;10.30;;;128.90;2048.00;;;;;;4808579;29;20041;-80
2022/01/21 13:03:34;;;;;;;19.65;11.10;;;128.80;2048.00;;;;;;4825068;29;20030;-80
2022/01/21 13:06:18;;;;;;;30.17;16.75;;;128.80;2048.00;;;;;;4807541;29;20041;-79
2022/01/21 13:08:59;;;;;;;40.10;24.55;;;128.90;2022.40;;;;;;4824618;29;20091;-78
2022/01/21 13:11:25;;;;;;;18.58;10.50;;;128.90;2022.40;;;;;;4808087;29;20036;-78
2022/01/21 13:17:00;;;;;;;31.63;20.38;;;128.80;2048.00;;;;;;4824757;29;20033;-80
2022/01/21 13:19:27;;;;;;;14.18;8.05;;;128.80;2073.60;;;;;;4808059;29;20488;-80
2022/01/21 13:21:53;;;;;;;13.27;7.75;;;128.60;2048.00;;;;;;4824209;29;20127;-78
2022/01/21 13:24:30;;;;;;;18.27;8.95;;;128.40;2073.60;;;;;;4808076;29;20575;-79
2022/01/21 13:26:58;;;;;;;18.27;9.90;;;128.40;2099.20;;;;;;4824570;29;20029;-78
2022/01/21 13:29:33;;;;;;;18.10;11.48;;;128.40;2099.20;;;;;;4807716;29;20053;-77
2022/01/21 13:32:02;;;;;;;19.45;12.32;;;128.40;2099.20;;;;;;4807828;29;20034;-76
2022/01/21 13:34:39;;;;;;;19.88;12.27;;;128.50;2124.80;;;;;;4807554;29;20129;-80
2022/01/21 13:37:07;;;;;;;16.75;9.95;;;128.40;2150.40;;;;;;4789382;29;20029;-80
2022/01/21 13:39:44;;;;;;;23.88;14.73;;;128.30;2124.80;;;;;;4789516;29;20454;-79
2022/01/21 13:42:18;;;;;;;26.48;14.80;;;128.20;2124.80;;;;;;4789994;29;20168;-77
2022/01/21 13:44:46;;;;;;;19.35;13.35;;;128.10;2073.60;;;;;;4789785;29;20490;-78
2022/01/21 13:47:27;;;;;;;23.80;15.63;;;128.10;2073.60;;;;;;4789663;29;20487;-76
2022/01/21 13:49:54;;;;;;;31.73;16.45;;;103.30;2048.00;;;;;;4789378;29;20052;-79
2022/01/21 13:52:32;;;;;;;21.90;12.45;;;103.10;1996.80;;;;;;4789111;29;20055;-80
2022/01/21 13:54:58;;;;;;;38.35;21.83;;;103.10;2048.00;;;;;;4805569;29;20031;-80
2022/01/21 13:57:28;;;;;;;38.92;21.00;;;103.00;2073.60;;;;;;4805473;29;20034;-80
2022/01/21 13:59:54;;;;;;;37.15;22.05;;;103.00;2073.60;;;;;;4789581;29;20474;-78
2022/01/21 14:02:20;;;;;;;24.73;13.75;;;103.10;2124.80;;;;;;4789200;29;20038;-83
2022/01/21 14:05:03;;;;;;;25.58;16.92;;;103.00;2099.20;;;;;;4789151;29;20030;-78
2022/01/21 14:07:32;;;;;;;32.05;19.10;;;102.90;2099.20;;;;;;4789673;29;20460;-79
2022/01/21 14:10:02;;;;;;;21.23;11.80;;;102.80;2150.40;;;;;;4805832;29;20035;-78
2022/01/21 14:12:30;;;;;;;20.52;12.80;;;103.00;2124.80;;;;;;4789132;29;20034;-78
2022/01/21 14:14:56;;;;;;;22.77;12.45;;;103.00;2124.80;;;;;;4805207;29;20461;-78
2022/01/21 14:17:26;;;;;;;98.60;43.67;;;102.90;2124.80;;;;;;4789436;29;20030;-79
2022/01/21 14:19:54;;;;;;;86.75;40.72;;;102.90;2124.80;;;;;;4789028;29;20464;-81
2022/01/21 14:22:21;;;;;;;42.38;21.30;;;102.80;2124.80;;;;;;4789233;29;20035;-78
2022/01/21 14:24:51;;;;;;;19.10;9.98;;;102.80;2099.20;;;;;;4789562;29;20096;-79
2022/01/21 14:27:27;;;;;;;36.22;20.88;;;102.70;2124.80;;;;;;4788986;29;20034;-79
2022/01/21 14:30:02;;;;;;;19.20;11.30;;;102.70;2150.40;;;;;;4806837;29;20030;-78
2022/01/21 14:32:40;;;;;;;28.67;18.83;;;102.60;2150.40;;;;;;4807826;29;20045;-82